Traveller — PHAM — position and weather

sailwx.info

Track history (hours):
 
Tides and Currents Weather Stations Pressure Air Temp Water Temp Dewpoint Dewpoint Depression Visibility Wind Speed Wind Dir Waves Ship Positions

Traveller

Last reported at 2016-Jun-26 13:33 UTC. Time now 2016-Jun-30 03:26 UTC.
Position N 28°08' W 015°25'.

Length 101 m; beam 20 m.

Type: Ship. MMSI: 246111000.

Date/timePositionNaut miles runAvg speedWind from/ knotsBaromVisibWave heightAir tempDewpointWater temp
2016-Jun-26 13:33N 28°08' W 015°25'1 0.8
2016-Jun-26 12:31N 28°09' W 015°25'0 0.0
2016-Jun-26 11:31N 28°09' W 015°25'0 0.0
2016-Jun-26 10:31N 28°09' W 015°25'0 0.0
2016-Jun-26 09:31N 28°09' W 015°25'2 1.8
2016-Jun-26 08:34N 28°07' W 015°24'2 1.6
2016-Jun-26 07:34N 28°08' W 015°23'  
2016-Jun-22 17:33N 47°56' W 006°35'16814.0
2016-Jun-22 05:33N 49°49' W 003°26'1513.8
2016-Jun-22 04:28N 49°55' W 003°05'10915.5
2016-Jun-21 21:27N 50°27' W 000°22'1112.7
2016-Jun-21 20:33N 50°30' W 000°05'1313.4
2016-Jun-21 19:33N 50°34' E 000°15'3615.3
2016-Jun-21 17:13N 50°51' E 001°05'1015.0
2016-Jun-21 16:33N 50°58' E 001°16'1414.0
2016-Jun-21 15:33N 51°07' E 001°33'1212.1
2016-Jun-21 14:33N 51°18' E 001°43'1212.5
2016-Jun-21 13:33N 51°30' E 001°45'1414.3
2016-Jun-21 12:33N 51°44' E 001°45'1515.1
2016-Jun-21 11:33N 51°59' E 001°46'5416.1
2016-Jun-21 08:14N 52°52' E 002°00'1217.3
2016-Jun-21 07:33N 53°03' E 001°51'5116.4
2016-Jun-21 04:27N 53°49' E 001°14'6515.6
2016-Jun-21 00:17N 54°46' E 000°20'16415.2
2016-Jun-20 13:31N 57°09' W 002°02'1 0.1
2016-Jun-20 00:31N 57°09' W 002°05'34411.8
2016-Jun-18 19:20N 57°57' E 008°30'1214.4
2016-Jun-18 18:31N 58°03' E 008°50'1414.7
2016-Jun-18 17:34N 58°14' E 009°07'1514.9
2016-Jun-18 16:33N 58°25' E 009°25'1915.2
2016-Jun-18 15:20N 58°39' E 009°50'1216.2
2016-Jun-18 14:34N 58°47' E 010°08'1616.0
2016-Jun-18 13:34N 58°58' E 010°30'1413.8
2016-Jun-18 12:33N 59°11' E 010°37'1414.3
2016-Jun-18 11:33N 59°26' E 010°32'2 1.8
2016-Jun-18 10:33N 59°26' E 010°29'0 0.0
2016-Jun-18 09:33N 59°26' E 010°29'0 0.0
2016-Jun-18 08:33N 59°26' E 010°29'0 0.0
2016-Jun-18 07:33N 59°26' E 010°29'0 0.0
2016-Jun-18 06:33N 59°26' E 010°29'0 0.0
2016-Jun-18 05:33N 59°26' E 010°29'0 0.0
2016-Jun-18 04:30N 59°26' E 010°29'0 0.0
2016-Jun-18 03:33N 59°26' E 010°29'0 0.0
2016-Jun-18 02:33N 59°26' E 010°29'0 0.0
2016-Jun-18 01:33N 59°26' E 010°29'0 0.0
2016-Jun-18 00:33N 59°26' E 010°29'0 0.0
2016-Jun-17 23:33N 59°26' E 010°29'0 0.0
2016-Jun-17 22:33N 59°26' E 010°29'0 0.0
2016-Jun-17 21:33N 59°26' E 010°29'0 0.0
2016-Jun-17 20:33N 59°26' E 010°29'0 0.0
2016-Jun-17 19:33N 59°26' E 010°29'0 0.0
2016-Jun-17 18:33N 59°26' E 010°29'0 0.0
2016-Jun-17 17:33N 59°26' E 010°29'0 0.0
2016-Jun-17 16:33N 59°26' E 010°29'0 0.0
2016-Jun-17 15:33N 59°26' E 010°29'0 0.0
2016-Jun-17 14:33N 59°26' E 010°29'0 0.0
2016-Jun-17 13:33N 59°26' E 010°29'0 0.0
2016-Jun-17 12:33N 59°26' E 010°29'0 0.0
2016-Jun-17 11:33N 59°26' E 010°29'0 0.2
2016-Jun-17 10:34N 59°26' E 010°29'7 7.5
2016-Jun-17 09:34N 59°20' E 010°36'1515.0
2016-Jun-17 08:34N 59°05' E 010°35'1413.7
2016-Jun-17 07:33N 58°57' E 010°13'1313.2
2016-Jun-17 06:34N 58°57' E 009°48'9 8.9
2016-Jun-17 05:33N 59°05' E 009°38'3 0.7
2016-Jun-17 00:32N 59°07' E 009°34'0 0.0
2016-Jun-16 23:29N 59°07' E 009°34'0 0.0
2016-Jun-16 22:26N 59°07' E 009°34'0 0.0
2016-Jun-16 21:32N 59°07' E 009°34'  
Track history (hours):
 
Tides and Currents Weather Stations Pressure Air Temp Water Temp Dewpoint Dewpoint Depression Visibility Wind Speed Wind Dir Waves Ship Positions

Traveller

Last reported at 2016-Jun-26 13:33 UTC. Time now 2016-Jun-30 03:26 UTC.
Position N 28°08' W 015°25'.

Length 101 m; beam 20 m.

Type: Ship. MMSI: 246111000.

Date/timePositionNaut miles runAvg speedWind from/ knotsBaromVisibWave heightAir tempDewpointWater temp
2016-Jun-26 13:33N 28°08' W 015°25'1 0.8
2016-Jun-26 12:31N 28°09' W 015°25'0 0.0
2016-Jun-26 11:31N 28°09' W 015°25'0 0.0
2016-Jun-26 10:31N 28°09' W 015°25'0 0.0
2016-Jun-26 09:31N 28°09' W 015°25'2 1.8
2016-Jun-26 08:34N 28°07' W 015°24'2 1.6
2016-Jun-26 07:34N 28°08' W 015°23'  
2016-Jun-22 17:33N 47°56' W 006°35'16814.0
2016-Jun-22 05:33N 49°49' W 003°26'1513.8
2016-Jun-22 04:28N 49°55' W 003°05'10915.5
2016-Jun-21 21:27N 50°27' W 000°22'1112.7
2016-Jun-21 20:33N 50°30' W 000°05'1313.4
2016-Jun-21 19:33N 50°34' E 000°15'3615.3
2016-Jun-21 17:13N 50°51' E 001°05'1015.0
2016-Jun-21 16:33N 50°58' E 001°16'1414.0
2016-Jun-21 15:33N 51°07' E 001°33'1212.1
2016-Jun-21 14:33N 51°18' E 001°43'1212.5
2016-Jun-21 13:33N 51°30' E 001°45'1414.3
2016-Jun-21 12:33N 51°44' E 001°45'1515.1
2016-Jun-21 11:33N 51°59' E 001°46'5416.1
2016-Jun-21 08:14N 52°52' E 002°00'1217.3
2016-Jun-21 07:33N 53°03' E 001°51'5116.4
2016-Jun-21 04:27N 53°49' E 001°14'6515.6
2016-Jun-21 00:17N 54°46' E 000°20'16415.2
2016-Jun-20 13:31N 57°09' W 002°02'1 0.1
2016-Jun-20 00:31N 57°09' W 002°05'34411.8
2016-Jun-18 19:20N 57°57' E 008°30'1214.4
2016-Jun-18 18:31N 58°03' E 008°50'1414.7
2016-Jun-18 17:34N 58°14' E 009°07'1514.9
2016-Jun-18 16:33N 58°25' E 009°25'1915.2
2016-Jun-18 15:20N 58°39' E 009°50'1216.2
2016-Jun-18 14:34N 58°47' E 010°08'1616.0
2016-Jun-18 13:34N 58°58' E 010°30'1413.8
2016-Jun-18 12:33N 59°11' E 010°37'1414.3
2016-Jun-18 11:33N 59°26' E 010°32'2 1.8
2016-Jun-18 10:33N 59°26' E 010°29'0 0.0
2016-Jun-18 09:33N 59°26' E 010°29'0 0.0
2016-Jun-18 08:33N 59°26' E 010°29'0 0.0
2016-Jun-18 07:33N 59°26' E 010°29'0 0.0
2016-Jun-18 06:33N 59°26' E 010°29'0 0.0
2016-Jun-18 05:33N 59°26' E 010°29'0 0.0
2016-Jun-18 04:30N 59°26' E 010°29'0 0.0
2016-Jun-18 03:33N 59°26' E 010°29'0 0.0
2016-Jun-18 02:33N 59°26' E 010°29'0 0.0
2016-Jun-18 01:33N 59°26' E 010°29'0 0.0
2016-Jun-18 00:33N 59°26' E 010°29'0 0.0
2016-Jun-17 23:33N 59°26' E 010°29'0 0.0
2016-Jun-17 22:33N 59°26' E 010°29'0 0.0
2016-Jun-17 21:33N 59°26' E 010°29'0 0.0
2016-Jun-17 20:33N 59°26' E 010°29'0 0.0
2016-Jun-17 19:33N 59°26' E 010°29'0 0.0
2016-Jun-17 18:33N 59°26' E 010°29'0 0.0
2016-Jun-17 17:33N 59°26' E 010°29'0 0.0
2016-Jun-17 16:33N 59°26' E 010°29'0 0.0
2016-Jun-17 15:33N 59°26' E 010°29'0 0.0
2016-Jun-17 14:33N 59°26' E 010°29'0 0.0
2016-Jun-17 13:33N 59°26' E 010°29'0 0.0
2016-Jun-17 12:33N 59°26' E 010°29'0 0.0
2016-Jun-17 11:33N 59°26' E 010°29'0 0.2
2016-Jun-17 10:34N 59°26' E 010°29'7 7.5
2016-Jun-17 09:34N 59°20' E 010°36'1515.0
2016-Jun-17 08:34N 59°05' E 010°35'1413.7
2016-Jun-17 07:33N 58°57' E 010°13'1313.2
2016-Jun-17 06:34N 58°57' E 009°48'9 8.9
2016-Jun-17 05:33N 59°05' E 009°38'3 0.7
2016-Jun-17 00:32N 59°07' E 009°34'0 0.0
2016-Jun-16 23:29N 59°07' E 009°34'0 0.0
2016-Jun-16 22:26N 59°07' E 009°34'0 0.0
2016-Jun-16 21:32N 59°07' E 009°34'  

Dump ship's entire track history